sensor_id;sensor_type;location;lat;lon;timestamp;pressure;altitude;pressure_sealevel;temperature;humidity
60015;BME280;45867;52.480;6.056;2023-04-07T00:01:27;101422.97;;;6.85;100.00
60015;BME280;45867;52.480;6.056;2023-04-07T00:03:52;101422.75;;;6.87;100.00
60015;BME280;45867;52.480;6.056;2023-04-07T00:06:17;101415.16;;;6.79;100.00
60015;BME280;45867;52.480;6.056;2023-04-07T00:08:42;101417.81;;;6.79;100.00
60015;BME280;45867;52.480;6.056;2023-04-07T00:11:08;101422.84;;;6.80;100.00
60015;BME280;45867;52.480;6.056;2023-04-07T00:13:33;101425.25;;;6.82;100.00
60015;BME280;45867;52.480;6.056;2023-04-07T00:15:59;101424.00;;;6.84;100.00
60015;BME280;45867;52.480;6.056;2023-04-07T00:18:24;101412.31;;;6.80;100.00
60015;BME280;45867;52.480;6.056;2023-04-07T00:20:50;101425.16;;;6.88;100.00
60015;BME280;45867;52.480;6.056;2023-04-07T00:23:15;101432.28;;;6.88;100.00
60015;BME280;45867;52.480;6.056;2023-04-07T00:25:40;101429.25;;;6.84;100.00
60015;BME280;45867;52.480;6.056;2023-04-07T00:28:06;101427.78;;;6.88;100.00
60015;BME280;45867;52.480;6.056;2023-04-07T00:30:31;101427.91;;;6.94;100.00
60015;BME280;45867;52.480;6.056;2023-04-07T00:32:56;101431.16;;;6.96;100.00
60015;BME280;45867;52.480;6.056;2023-04-07T00:35:22;101424.25;;;6.95;100.00
60015;BME280;45867;52.480;6.056;2023-04-07T00:37:47;101424.59;;;6.98;100.00
60015;BME280;45867;52.480;6.056;2023-04-07T00:40:12;101413.13;;;6.93;100.00
60015;BME280;45867;52.480;6.056;2023-04-07T00:42:38;101422.41;;;6.95;100.00
60015;BME280;45867;52.480;6.056;2023-04-07T00:45:03;101426.66;;;6.96;100.00
60015;BME280;45867;52.480;6.056;2023-04-07T00:47:29;101416.59;;;6.93;100.00
60015;BME280;45867;52.480;6.056;2023-04-07T00:49:54;101432.28;;;7.00;100.00
60015;BME280;45867;52.480;6.056;2023-04-07T00:52:20;101427.81;;;7.00;100.00
60015;BME280;45867;52.480;6.056;2023-04-07T00:54:53;101416.00;;;7.03;100.00
60015;BME280;45867;52.480;6.056;2023-04-07T00:57:19;101425.63;;;7.09;100.00
60015;BME280;45867;52.480;6.056;2023-04-07T00:59:44;101433.53;;;7.09;100.00
60015;BME280;45867;52.480;6.056;2023-04-07T01:02:15;101415.44;;;7.01;100.00
60015;BME280;45867;52.480;6.056;2023-04-07T01:05:00;101428.72;;;7.06;100.00
60015;BME280;45867;52.480;6.056;2023-04-07T01:07:49;101433.00;;;7.07;100.00
60015;BME280;45867;52.480;6.056;2023-04-07T01:10:20;101441.44;;;7.09;100.00
60015;BME280;45867;52.480;6.056;2023-04-07T01:13:08;101435.75;;;7.12;100.00
60015;BME280;45867;52.480;6.056;2023-04-07T01:15:38;101438.00;;;7.08;100.00
60015;BME280;45867;52.480;6.056;2023-04-07T01:18:10;101438.59;;;7.10;100.00
60015;BME280;45867;52.480;6.056;2023-04-07T01:20:37;101438.47;;;7.05;100.00
60015;BME280;45867;52.480;6.056;2023-04-07T01:23:05;101441.09;;;7.05;100.00
60015;BME280;45867;52.480;6.056;2023-04-07T01:25:53;101443.06;;;7.10;100.00
60015;BME280;45867;52.480;6.056;2023-04-07T01:30:58;101444.44;;;7.13;100.00
60015;BME280;45867;52.480;6.056;2023-04-07T01:33:27;101438.81;;;7.09;100.00
60015;BME280;45867;52.480;6.056;2023-04-07T01:35:57;101438.25;;;7.07;100.00
60015;BME280;45867;52.480;6.056;2023-04-07T01:38:24;101441.03;;;7.12;100.00
60015;BME280;45867;52.480;6.056;2023-04-07T01:40:51;101443.88;;;7.10;100.00
60015;BME280;45867;52.480;6.056;2023-04-07T01:43:17;101435.75;;;7.12;100.00
60015;BME280;45867;52.480;6.056;2023-04-07T01:45:43;101439.41;;;7.11;100.00
60015;BME280;45867;52.480;6.056;2023-04-07T01:48:09;101431.81;;;7.03;100.00
60015;BME280;45867;52.480;6.056;2023-04-07T01:50:35;101439.50;;;7.04;100.00
60015;BME280;45867;52.480;6.056;2023-04-07T01:53:02;101438.47;;;7.05;100.00
60015;BME280;45867;52.480;6.056;2023-04-07T01:55:28;101440.19;;;7.11;100.00
60015;BME280;45867;52.480;6.056;2023-04-07T01:57:53;101427.00;;;7.00;100.00
60015;BME280;45867;52.480;6.056;2023-04-07T02:00:18;101443.28;;;7.08;100.00
60015;BME280;45867;52.480;6.056;2023-04-07T02:02:45;101432.16;;;7.06;100.00
60015;BME280;45867;52.480;6.056;2023-04-07T02:05:17;101439.84;;;7.08;100.00
60015;BME280;45867;52.480;6.056;2023-04-07T02:07:58;101429.44;;;7.01;100.00
60015;BME280;45867;52.480;6.056;2023-04-07T02:10:27;101428.72;;;7.06;100.00
60015;BME280;45867;52.480;6.056;2023-04-07T02:12:54;101436.88;;;7.04;100.00
60015;BME280;45867;52.480;6.056;2023-04-07T02:15:22;101430.34;;;7.07;100.00
60015;BME280;45867;52.480;6.056;2023-04-07T02:17:51;101437.22;;;7.08;100.00
60015;BME280;45867;52.480;6.056;2023-04-07T02:20:19;101432.16;;;7.06;100.00
60015;BME280;45867;52.480;6.056;2023-04-07T02:22:45;101441.09;;;7.05;100.00
60015;BME280;45867;52.480;6.056;2023-04-07T02:25:29;101439.84;;;7.08;100.00
60015;BME280;45867;52.480;6.056;2023-04-07T02:27:56;101434.78;;;7.06;100.00
60015;BME280;45867;52.480;6.056;2023-04-07T02:30:23;101446.16;;;7.07;100.00
60015;BME280;45867;52.480;6.056;2023-04-07T02:32:48;101442.59;;;7.01;100.00
60015;BME280;45867;52.480;6.056;2023-04-07T02:35:14;101452.44;;;7.06;100.00
60015;BME280;45867;52.480;6.056;2023-04-07T02:37:41;101439.28;;;7.06;100.00
60015;BME280;45867;52.480;6.056;2023-04-07T02:40:07;101450.59;;;7.06;100.00
60015;BME280;45867;52.480;6.056;2023-04-07T02:42:32;101452.00;;;7.09;100.00
60015;BME280;45867;52.480;6.056;2023-04-07T02:44:58;101447.63;;;7.03;100.00
60015;BME280;45867;52.480;6.056;2023-04-07T02:47:24;101437.56;;;7.00;100.00
60015;BME280;45867;52.480;6.056;2023-04-07T02:49:49;101443.63;;;7.00;100.00
60015;BME280;45867;52.480;6.056;2023-04-07T02:52:15;101438.00;;;6.97;100.00
60015;BME280;45867;52.480;6.056;2023-04-07T02:54:40;101446.25;;;7.00;100.00
60015;BME280;45867;52.480;6.056;2023-04-07T02:57:05;101453.38;;;7.00;100.00
60015;BME280;45867;52.480;6.056;2023-04-07T02:59:31;101449.47;;;7.02;100.00
60015;BME280;45867;52.480;6.056;2023-04-07T03:01:56;101450.50;;;7.01;100.00
60015;BME280;45867;52.480;6.056;2023-04-07T03:04:21;101441.09;;;6.94;100.00
60015;BME280;45867;52.480;6.056;2023-04-07T03:06:47;101449.59;;;6.96;100.00
60015;BME280;45867;52.480;6.056;2023-04-07T03:09:13;101458.19;;;7.03;100.00
60015;BME280;45867;52.480;6.056;2023-04-07T03:11:38;101451.31;;;7.02;100.00
60015;BME280;45867;52.480;6.056;2023-04-07T03:14:04;101451.53;;;7.00;100.00
60015;BME280;45867;52.480;6.056;2023-04-07T03:16:29;101451.19;;;6.97;100.00
60015;BME280;45867;52.480;6.056;2023-04-07T03:18:54;101446.38;;;6.94;100.00
60015;BME280;45867;52.480;6.056;2023-04-07T03:21:20;101447.75;;;6.96;100.00
60015;BME280;45867;52.480;6.056;2023-04-07T03:23:45;101452.31;;;7.01;100.00
60015;BME280;45867;52.480;6.056;2023-04-07T03:26:10;101444.53;;;6.94;100.00
60015;BME280;45867;52.480;6.056;2023-04-07T03:28:35;101446.13;;;6.95;100.00
60015;BME280;45867;52.480;6.056;2023-04-07T03:31:01;101452.44;;;7.06;100.00
60015;BME280;45867;52.480;6.056;2023-04-07T03:33:26;101452.56;;;6.99;100.00
60015;BME280;45867;52.480;6.056;2023-04-07T03:35:52;101441.09;;;6.94;100.00
60015;BME280;45867;52.480;6.056;2023-04-07T03:38:17;101442.09;;;6.93;100.00
60015;BME280;45867;52.480;6.056;2023-04-07T03:40:43;101451.19;;;6.97;100.00
60015;BME280;45867;52.480;6.056;2023-04-07T03:43:08;101450.94;;;6.98;100.00
60015;BME280;45867;52.480;6.056;2023-04-07T03:45:38;101445.56;;;6.93;100.00
60015;BME280;45867;52.480;6.056;2023-04-07T03:48:03;101444.75;;;6.93;100.00
60015;BME280;45867;52.480;6.056;2023-04-07T03:50:29;101453.22;;;6.95;100.00
60015;BME280;45867;52.480;6.056;2023-04-07T03:52:55;101451.97;;;6.97;100.00
60015;BME280;45867;52.480;6.056;2023-04-07T03:55:21;101454.75;;;7.02;100.00
60015;BME280;45867;52.480;6.056;2023-04-07T03:57:46;101461.84;;;7.02;100.00
60015;BME280;45867;52.480;6.056;2023-04-07T04:00:12;101459.09;;;6.97;100.00
60015;BME280;45867;52.480;6.056;2023-04-07T04:02:37;101447.63;;;6.91;100.00
60015;BME280;45867;52.480;6.056;2023-04-07T04:05:03;101463.09;;;6.99;100.00
60015;BME280;45867;52.480;6.056;2023-04-07T04:07:28;101456.31;;;6.92;100.00
60015;BME280;45867;52.480;6.056;2023-04-07T04:09:54;101457.59;;;7.01;100.00
60015;BME280;45867;52.480;6.056;2023-04-07T04:12:20;101449.00;;;6.94;100.00
60015;BME280;45867;52.480;6.056;2023-04-07T04:14:45;101464.69;;;7.00;100.00
60015;BME280;45867;52.480;6.056;2023-04-07T04:17:10;101468.13;;;7.01;100.00
60015;BME280;45867;52.480;6.056;2023-04-07T04:19:36;101456.66;;;6.95;100.00
60015;BME280;45867;52.480;6.056;2023-04-07T04:22:01;101451.63;;;6.94;100.00
60015;BME280;45867;52.480;6.056;2023-04-07T04:24:26;101467.34;;;7.00;100.00
60015;BME280;45867;52.480;6.056;2023-04-07T04:26:51;101465.63;;;7.06;100.00
60015;BME280;45867;52.480;6.056;2023-04-07T04:29:17;101453.47;;;6.93;100.00
60015;BME280;45867;52.480;6.056;2023-04-07T04:31:42;101448.22;;;6.93;100.00
60015;BME280;45867;52.480;6.056;2023-04-07T04:34:07;101462.75;;;6.96;100.00
60015;BME280;45867;52.480;6.056;2023-04-07T04:36:33;101461.94;;;6.95;100.00
60015;BME280;45867;52.480;6.056;2023-04-07T04:38:58;101473.84;;;6.98;100.00
60015;BME280;45867;52.480;6.056;2023-04-07T04:41:23;101471.81;;;7.00;100.00
60015;BME280;45867;52.480;6.056;2023-04-07T04:43:49;101480.06;;;7.03;100.00
60015;BME280;45867;52.480;6.056;2023-04-07T04:46:14;101465.81;;;6.93;100.00
60015;BME280;45867;52.480;6.056;2023-04-07T04:48:39;101477.41;;;7.03;100.00
60015;BME280;45867;52.480;6.056;2023-04-07T04:51:06;101475.03;;;7.02;100.00
60015;BME280;45867;52.480;6.056;2023-04-07T04:53:31;101479.25;;;7.03;100.00
60015;BME280;45867;52.480;6.056;2023-04-07T04:55:56;101479.59;;;7.06;100.00
60015;BME280;45867;52.480;6.056;2023-04-07T04:58:22;101485.91;;;7.05;100.00
60015;BME280;45867;52.480;6.056;2023-04-07T05:00:47;101475.81;;;7.02;100.00
60015;BME280;45867;52.480;6.056;2023-04-07T05:03:12;101470.66;;;6.96;100.00
60015;BME280;45867;52.480;6.056;2023-04-07T05:05:38;101475.25;;;7.00;100.00
60015;BME280;45867;52.480;6.056;2023-04-07T05:08:04;101476.38;;;6.93;100.00
60015;BME280;45867;52.480;6.056;2023-04-07T05:10:29;101486.81;;;6.99;100.00
60015;BME280;45867;52.480;6.056;2023-04-07T05:12:55;101473.97;;;6.91;100.00
60015;BME280;45867;52.480;6.056;2023-04-07T05:15:20;101495.19;;;7.08;100.00
60015;BME280;45867;52.480;6.056;2023-04-07T05:17:45;101485.91;;;7.05;100.00
60015;BME280;45867;52.480;6.056;2023-04-07T05:20:17;101490.72;;;7.08;100.00
60015;BME280;45867;52.480;6.056;2023-04-07T05:22:43;101499.44;;;7.09;100.00
60015;BME280;45867;52.480;6.056;2023-04-07T05:25:11;101491.84;;;7.01;100.00
60015;BME280;45867;52.480;6.056;2023-04-07T05:27:36;101488.41;;;7.00;100.00
60015;BME280;45867;52.480;6.056;2023-04-07T05:30:01;101491.19;;;7.05;100.00
60015;BME280;45867;52.480;6.056;2023-04-07T05:32:27;101499.22;;;7.10;100.00
60015;BME280;45867;52.480;6.056;2023-04-07T05:34:52;101500.81;;;7.11;100.00
60015;BME280;45867;52.480;6.056;2023-04-07T05:37:18;101496.13;;;7.14;100.00
60015;BME280;45867;52.480;6.056;2023-04-07T05:39:43;101494.63;;;7.06;100.00
60015;BME280;45867;52.480;6.056;2023-04-07T05:42:08;101499.09;;;7.17;100.00
60015;BME280;45867;52.480;6.056;2023-04-07T05:44:33;101503.00;;;7.15;100.00
60015;BME280;45867;52.480;6.056;2023-04-07T05:46:59;101504.97;;;7.19;100.00
60015;BME280;45867;52.480;6.056;2023-04-07T05:49:25;101506.78;;;7.19;100.00
60015;BME280;45867;52.480;6.056;2023-04-07T05:51:50;101507.00;;;7.17;100.00
60015;BME280;45867;52.480;6.056;2023-04-07T05:54:18;101490.63;;;7.15;100.00
60015;BME280;45867;52.480;6.056;2023-04-07T05:56:44;101489.72;;;7.09;100.00
60015;BME280;45867;52.480;6.056;2023-04-07T05:59:09;101503.13;;;7.20;100.00
60015;BME280;45867;52.480;6.056;2023-04-07T06:01:34;101504.63;;;7.16;100.00
60015;BME280;45867;52.480;6.056;2023-04-07T06:04:00;101497.72;;;7.15;100.00
60015;BME280;45867;52.480;6.056;2023-04-07T06:06:28;101507.00;;;7.17;100.00
60015;BME280;45867;52.480;6.056;2023-04-07T06:08:53;101497.50;;;7.16;100.00
60015;BME280;45867;52.480;6.056;2023-04-07T06:11:18;101518.16;;;7.31;100.00
60015;BME280;45867;52.480;6.056;2023-04-07T06:13:44;101527.34;;;7.28;100.00
60015;BME280;45867;52.480;6.056;2023-04-07T06:16:10;101516.09;;;7.21;100.00
60015;BME280;45867;52.480;6.056;2023-04-07T06:18:35;101511.28;;;7.30;100.00
60015;BME280;45867;52.480;6.056;2023-04-07T06:21:04;101522.63;;;7.30;100.00
60015;BME280;45867;52.480;6.056;2023-04-07T06:23:29;101510.56;;;7.23;100.00
60015;BME280;45867;52.480;6.056;2023-04-07T06:25:55;101532.50;;;7.35;100.00
60015;BME280;45867;52.480;6.056;2023-04-07T06:28:20;101519.44;;;7.28;100.00
60015;BME280;45867;52.480;6.056;2023-04-07T06:30:45;101505.28;;;7.23;100.00
60015;BME280;45867;52.480;6.056;2023-04-07T06:33:11;101528.47;;;7.32;100.00
60015;BME280;45867;52.480;6.056;2023-04-07T06:35:38;101519.66;;;7.27;100.00
60015;BME280;45867;52.480;6.056;2023-04-07T06:38:05;101532.28;;;7.37;100.00
60015;BME280;45867;52.480;6.056;2023-04-07T06:40:31;101519.19;;;7.30;100.00
60015;BME280;45867;52.480;6.056;2023-04-07T06:43:02;101526.19;;;7.36;100.00
60015;BME280;45867;52.480;6.056;2023-04-07T06:45:28;101523.22;;;7.32;100.00
60015;BME280;45867;52.480;6.056;2023-04-07T06:47:53;101520.91;;;7.24;100.00
60015;BME280;45867;52.480;6.056;2023-04-07T06:50:19;101531.13;;;7.32;100.00
60015;BME280;45867;52.480;6.056;2023-04-07T06:52:49;101554.38;;;7.36;100.00
60015;BME280;45867;52.480;6.056;2023-04-07T06:55:16;101543.38;;;7.27;100.00
60015;BME280;45867;52.480;6.056;2023-04-07T06:57:42;101548.91;;;7.37;100.00
60015;BME280;45867;52.480;6.056;2023-04-07T07:00:08;101540.06;;;7.31;100.00
60015;BME280;45867;52.480;6.056;2023-04-07T07:02:33;101554.31;;;7.42;100.00
60015;BME280;45867;52.480;6.056;2023-04-07T07:04:59;101547.97;;;7.31;100.00
60015;BME280;45867;52.480;6.056;2023-04-07T07:07:24;101557.50;;;7.44;100.00
60015;BME280;45867;52.480;6.056;2023-04-07T07:09:50;101564.94;;;7.47;100.00
60015;BME280;45867;52.480;6.056;2023-04-07T07:12:16;101551.44;;;7.44;100.00
60015;BME280;45867;52.480;6.056;2023-04-07T07:14:42;101559.91;;;7.46;100.00
60015;BME280;45867;52.480;6.056;2023-04-07T07:17:08;101571.25;;;7.46;100.00
60015;BME280;45867;52.480;6.056;2023-04-07T07:19:33;101565.53;;;7.49;100.00
60015;BME280;45867;52.480;6.056;2023-04-07T07:22:00;101573.69;;;7.48;100.00
60015;BME280;45867;52.480;6.056;2023-04-07T07:24:40;101558.53;;;7.43;100.00
60015;BME280;45867;52.480;6.056;2023-04-07T07:27:06;101556.81;;;7.49;100.00
60015;BME280;45867;52.480;6.056;2023-04-07T07:29:31;101556.38;;;7.52;100.00
60015;BME280;45867;52.480;6.056;2023-04-07T07:32:02;101572.91;;;7.59;100.00
60015;BME280;45867;52.480;6.056;2023-04-07T07:34:28;101566.38;;;7.62;100.00
60015;BME280;45867;52.480;6.056;2023-04-07T07:36:53;101579.34;;;7.75;100.00
60015;BME280;45867;52.480;6.056;2023-04-07T07:39:19;101577.50;;;7.87;100.00
60015;BME280;45867;52.480;6.056;2023-04-07T07:41:44;101567.16;;;7.74;100.00
60015;BME280;45867;52.480;6.056;2023-04-07T07:44:10;101571.44;;;7.75;100.00
60015;BME280;45867;52.480;6.056;2023-04-07T07:46:36;101579.09;;;7.88;100.00
60015;BME280;45867;52.480;6.056;2023-04-07T07:49:01;101581.63;;;7.95;100.00
60015;BME280;45867;52.480;6.056;2023-04-07T07:51:27;101577.84;;;7.91;100.00
60015;BME280;45867;52.480;6.056;2023-04-07T07:53:54;101588.06;;;7.99;100.00
60015;BME280;45867;52.480;6.056;2023-04-07T07:56:20;101599.75;;;8.15;100.00
60015;BME280;45867;52.480;6.056;2023-04-07T07:58:48;101575.91;;;7.98;100.00
60015;BME280;45867;52.480;6.056;2023-04-07T08:01:13;101583.69;;;8.05;100.00
60015;BME280;45867;52.480;6.056;2023-04-07T08:03:38;101587.16;;;8.05;100.00
60015;BME280;45867;52.480;6.056;2023-04-07T08:06:04;101585.53;;;8.28;100.00
60015;BME280;45867;52.480;6.056;2023-04-07T08:08:30;101615.84;;;8.25;100.00
60015;BME280;45867;52.480;6.056;2023-04-07T08:10:56;101608.69;;;8.37;100.00
60015;BME280;45867;52.480;6.056;2023-04-07T08:13:21;101612.84;;;8.45;100.00
60015;BME280;45867;52.480;6.056;2023-04-07T08:15:46;101617.22;;;8.39;100.00
60015;BME280;45867;52.480;6.056;2023-04-07T08:18:12;101613.28;;;8.54;100.00
60015;BME280;45867;52.480;6.056;2023-04-07T08:20:37;101618.88;;;8.69;100.00
60015;BME280;45867;52.480;6.056;2023-04-07T08:23:02;101619.03;;;8.62;100.00
60015;BME280;45867;52.480;6.056;2023-04-07T08:25:28;101621.69;;;8.62;100.00
60015;BME280;45867;52.480;6.056;2023-04-07T08:27:53;101611.53;;;8.71;100.00
60015;BME280;45867;52.480;6.056;2023-04-07T08:30:18;101619.00;;;8.74;100.00
60015;BME280;45867;52.480;6.056;2023-04-07T08:32:45;101622.44;;;8.75;100.00
60015;BME280;45867;52.480;6.056;2023-04-07T08:35:11;101621.50;;;8.81;100.00
60015;BME280;45867;52.480;6.056;2023-04-07T08:37:37;101616.03;;;8.71;100.00
60015;BME280;45867;52.480;6.056;2023-04-07T08:40:04;101618.03;;;8.52;100.00
60015;BME280;45867;52.480;6.056;2023-04-07T08:42:32;101621.00;;;8.55;100.00
60015;BME280;45867;52.480;6.056;2023-04-07T08:45:03;101619.28;;;8.49;100.00
60015;BME280;45867;52.480;6.056;2023-04-07T08:47:31;101629.47;;;8.69;100.00
60015;BME280;45867;52.480;6.056;2023-04-07T08:50:01;101646.38;;;8.68;100.00
60015;BME280;45867;52.480;6.056;2023-04-07T08:52:33;101634.66;;;8.52;100.00
60015;BME280;45867;52.480;6.056;2023-04-07T08:55:03;101642.34;;;8.65;100.00
60015;BME280;45867;52.480;6.056;2023-04-07T08:57:31;101644.03;;;8.72;100.00
60015;BME280;45867;52.480;6.056;2023-04-07T09:00:00;101645.34;;;8.57;100.00
60015;BME280;45867;52.480;6.056;2023-04-07T09:02:31;101653.13;;;8.76;100.00
60015;BME280;45867;52.480;6.056;2023-04-07T09:04:57;101648.75;;;8.70;100.00
60015;BME280;45867;52.480;6.056;2023-04-07T09:07:23;101656.56;;;8.64;100.00
60015;BME280;45867;52.480;6.056;2023-04-07T09:09:51;101666.69;;;8.68;100.00
60015;BME280;45867;52.480;6.056;2023-04-07T09:12:16;101651.75;;;8.61;100.00
60015;BME280;45867;52.480;6.056;2023-04-07T09:14:41;101646.13;;;8.70;100.00
60015;BME280;45867;52.480;6.056;2023-04-07T09:17:07;101646.59;;;8.66;100.00
60015;BME280;45867;52.480;6.056;2023-04-07T09:19:32;101664.25;;;8.78;100.00
60015;BME280;45867;52.480;6.056;2023-04-07T09:21:58;101662.50;;;8.83;100.00
60015;BME280;45867;52.480;6.056;2023-04-07T09:24:28;101668.16;;;8.75;100.00
60015;BME280;45867;52.480;6.056;2023-04-07T09:27:15;101658.91;;;8.49;100.00
60015;BME280;45867;52.480;6.056;2023-04-07T09:29:42;101671.72;;;8.81;100.00
60015;BME280;45867;52.480;6.056;2023-04-07T09:32:08;101664.09;;;8.96;100.00
60015;BME280;45867;52.480;6.056;2023-04-07T09:34:36;101675.09;;;9.05;100.00
60015;BME280;45867;52.480;6.056;2023-04-07T09:37:02;101666.53;;;8.98;100.00
60015;BME280;45867;52.480;6.056;2023-04-07T09:39:29;101664.56;;;8.93;100.00
60015;BME280;45867;52.480;6.056;2023-04-07T09:41:54;101666.19;;;8.82;100.00
60015;BME280;45867;52.480;6.056;2023-04-07T09:44:21;101670.53;;;8.88;100.00
60015;BME280;45867;52.480;6.056;2023-04-07T09:46:50;101681.91;;;8.89;100.00
60015;BME280;45867;52.480;6.056;2023-04-07T09:49:15;101665.41;;;8.82;100.00
60015;BME280;45867;52.480;6.056;2023-04-07T09:51:58;101673.59;;;9.09;100.00
60015;BME280;45867;52.480;6.056;2023-04-07T09:54:40;101674.50;;;9.15;100.00
60015;BME280;45867;52.480;6.056;2023-04-07T09:57:06;101680.22;;;9.23;100.00
60015;BME280;45867;52.480;6.056;2023-04-07T09:59:33;101675.09;;;9.17;100.00
60015;BME280;45867;52.480;6.056;2023-04-07T10:01:59;101675.88;;;9.17;100.00
60015;BME280;45867;52.480;6.056;2023-04-07T10:04:25;101690.56;;;9.25;100.00
60015;BME280;45867;52.480;6.056;2023-04-07T10:06:56;101682.81;;;9.35;100.00
60015;BME280;45867;52.480;6.056;2023-04-07T10:09:22;101685.72;;;9.22;100.00
60015;BME280;45867;52.480;6.056;2023-04-07T10:11:50;101690.69;;;9.18;100.00
60015;BME280;45867;52.480;6.056;2023-04-07T10:14:17;101683.59;;;9.07;100.00
60015;BME280;45867;52.480;6.056;2023-04-07T10:16:42;101681.19;;;9.05;100.00
60015;BME280;45867;52.480;6.056;2023-04-07T10:19:08;101684.72;;;9.11;100.00
60015;BME280;45867;52.480;6.056;2023-04-07T10:21:37;101700.81;;;9.21;100.00
60015;BME280;45867;52.480;6.056;2023-04-07T10:26:55;101701.53;;;9.05;100.00
60015;BME280;45867;52.480;6.056;2023-04-07T10:29:22;101704.81;;;9.24;100.00
60015;BME280;45867;52.480;6.056;2023-04-07T10:31:48;101684.66;;;9.06;100.00
60015;BME280;45867;52.480;6.056;2023-04-07T10:34:14;101709.31;;;9.23;100.00
60015;BME280;45867;52.480;6.056;2023-04-07T10:37:10;101710.72;;;9.14;100.00
60015;BME280;45867;52.480;6.056;2023-04-07T10:39:37;101718.25;;;9.34;100.00
60015;BME280;45867;52.480;6.056;2023-04-07T10:42:03;101709.78;;;9.20;100.00
60015;BME280;45867;52.480;6.056;2023-04-07T10:47:05;101726.78;;;9.24;100.00
60015;BME280;45867;52.480;6.056;2023-04-07T10:49:32;101728.28;;;9.20;100.00
60015;BME280;45867;52.480;6.056;2023-04-07T10:54:36;101736.38;;;9.02;100.00
60015;BME280;45867;52.480;6.056;2023-04-07T10:59:30;101737.41;;;9.13;100.00
60015;BME280;45867;52.480;6.056;2023-04-07T11:04:37;101743.63;;;9.06;100.00
60015;BME280;45867;52.480;6.056;2023-04-07T11:07:07;101743.47;;;9.13;100.00
60015;BME280;45867;52.480;6.056;2023-04-07T11:09:33;101744.75;;;9.10;100.00
60015;BME280;45867;52.480;6.056;2023-04-07T11:11:58;101745.69;;;9.04;100.00
60015;BME280;45867;52.480;6.056;2023-04-07T11:14:28;101748.22;;;8.99;100.00
60015;BME280;45867;52.480;6.056;2023-04-07T11:17:25;101742.97;;;8.87;100.00
60015;BME280;45867;52.480;6.056;2023-04-07T11:19:52;101755.25;;;8.94;100.00
60015;BME280;45867;52.480;6.056;2023-04-07T11:22:18;101762.72;;;8.85;100.00
60015;BME280;45867;52.480;6.056;2023-04-07T11:24:45;101750.44;;;8.79;100.00
60015;BME280;45867;52.480;6.056;2023-04-07T11:27:12;101767.09;;;8.91;100.00
60015;BME280;45867;52.480;6.056;2023-04-07T11:29:37;101766.63;;;9.06;100.00
60015;BME280;45867;52.480;6.056;2023-04-07T11:32:11;101767.22;;;8.84;100.00
60015;BME280;45867;52.480;6.056;2023-04-07T11:34:37;101770.53;;;8.92;100.00
60015;BME280;45867;52.480;6.056;2023-04-07T11:37:21;101761.56;;;8.93;100.00
60015;BME280;45867;52.480;6.056;2023-04-07T11:39:53;101765.72;;;9.00;100.00
60015;BME280;45867;52.480;6.056;2023-04-07T11:42:38;101779.22;;;9.16;100.00
60015;BME280;45867;52.480;6.056;2023-04-07T11:45:05;101774.56;;;9.06;100.00
60015;BME280;45867;52.480;6.056;2023-04-07T11:47:40;101781.91;;;9.04;100.00
60015;BME280;45867;52.480;6.056;2023-04-07T11:50:06;101780.84;;;9.05;100.00
60015;BME280;45867;52.480;6.056;2023-04-07T11:52:44;101787.59;;;9.24;100.00
60015;BME280;45867;52.480;6.056;2023-04-07T11:55:20;101789.91;;;9.21;100.00
60015;BME280;45867;52.480;6.056;2023-04-07T11:57:47;101787.31;;;9.09;100.00
60015;BME280;45867;52.480;6.056;2023-04-07T12:00:13;101789.13;;;9.20;100.00
60015;BME280;45867;52.480;6.056;2023-04-07T12:02:38;101790.59;;;9.16;100.00
60015;BME280;45867;52.480;6.056;2023-04-07T12:05:05;101792.81;;;9.07;100.00
60015;BME280;45867;52.480;6.056;2023-04-07T12:07:30;101804.34;;;8.89;100.00
60015;BME280;45867;52.480;6.056;2023-04-07T12:09:56;101800.19;;;8.94;100.00
60015;BME280;45867;52.480;6.056;2023-04-07T12:12:28;101802.72;;;9.00;100.00
60015;BME280;45867;52.480;6.056;2023-04-07T12:14:54;101802.81;;;9.05;100.00
60015;BME280;45867;52.480;6.056;2023-04-07T12:17:20;101804.78;;;9.10;100.00
60015;BME280;45867;52.480;6.056;2023-04-07T12:19:46;101804.31;;;9.13;100.00
60015;BME280;45867;52.480;6.056;2023-04-07T12:22:11;101811.22;;;9.14;100.00
60015;BME280;45867;52.480;6.056;2023-04-07T12:24:37;101818.56;;;9.12;100.00
60015;BME280;45867;52.480;6.056;2023-04-07T12:27:02;101809.81;;;9.00;100.00
60015;BME280;45867;52.480;6.056;2023-04-07T12:29:28;101811.00;;;9.04;100.00
60015;BME280;45867;52.480;6.056;2023-04-07T12:31:56;101819.50;;;9.06;100.00
60015;BME280;45867;52.480;6.056;2023-04-07T12:34:21;101817.19;;;9.09;100.00
60015;BME280;45867;52.480;6.056;2023-04-07T12:36:47;101809.94;;;9.05;100.00
60015;BME280;45867;52.480;6.056;2023-04-07T12:39:12;101819.38;;;9.13;100.00
60015;BME280;45867;52.480;6.056;2023-04-07T12:41:38;101821.53;;;9.16;100.00
60015;BME280;45867;52.480;6.056;2023-04-07T12:44:03;101812.94;;;9.08;100.00
60015;BME280;45867;52.480;6.056;2023-04-07T12:46:29;101822.22;;;9.23;100.00
60015;BME280;45867;52.480;6.056;2023-04-07T12:48:54;101823.72;;;9.19;100.00
60015;BME280;45867;52.480;6.056;2023-04-07T12:51:20;101832.38;;;9.14;100.00
60015;BME280;45867;52.480;6.056;2023-04-07T12:53:46;101827.84;;;9.26;100.00
60015;BME280;45867;52.480;6.056;2023-04-07T12:56:12;101828.66;;;9.27;100.00
60015;BME280;45867;52.480;6.056;2023-04-07T12:58:38;101833.28;;;9.20;100.00
60015;BME280;45867;52.480;6.056;2023-04-07T13:01:04;101834.31;;;9.07;100.00
60015;BME280;45867;52.480;6.056;2023-04-07T13:03:30;101835.81;;;8.91;100.00
60015;BME280;45867;52.480;6.056;2023-04-07T13:05:55;101827.88;;;8.91;100.00